createdAt,value
2023-03-28T08:16:53.102Z,64.26
2023-03-28T08:19:25.335Z,66.42
2023-03-28T08:22:04.734Z,67.09
2023-03-28T08:24:35.959Z,64.87
2023-03-28T08:27:12.755Z,65.46
2023-03-28T08:30:02.321Z,64.08
2023-03-28T08:32:48.717Z,67.57
2023-03-28T08:35:20.145Z,69.15
2023-03-28T08:37:53.883Z,65.63
2023-03-28T08:40:27.388Z,62.86
2023-03-28T08:43:50.018Z,62.37
2023-03-28T08:46:26.332Z,64.23
2023-03-28T08:48:58.786Z,63.52
2023-03-28T08:51:29.525Z,57.75
2023-03-28T08:54:14.513Z,61.27
2023-03-28T08:56:49.396Z,59.39
2023-03-28T08:59:25.372Z,58.83
2023-03-28T09:02:08.071Z,55.69
2023-03-28T09:07:44.925Z,52.79
2023-03-28T09:10:22.937Z,55.18
2023-03-28T09:13:06.300Z,59.01
2023-03-28T09:15:49.626Z,56.17
2023-03-28T09:18:44.088Z,55.33
2023-03-28T09:21:20.760Z,60.73
2023-03-28T09:24:07.071Z,59.83
2023-03-28T09:26:38.142Z,57.11
2023-03-28T09:29:11.374Z,56.13
2023-03-28T09:31:43.964Z,55.39
2023-03-28T09:34:18.724Z,57.62
2023-03-28T09:39:35.313Z,57.74
2023-03-28T09:42:09.969Z,57.89
2023-03-28T09:44:54.381Z,55.54
2023-03-28T09:47:25.876Z,56.81
2023-03-28T09:50:05.594Z,54.51
2023-03-28T09:52:43.702Z,56.02
2023-03-28T09:55:19.718Z,55.03
2023-03-28T09:58:05.261Z,54.09
2023-03-28T10:00:38.222Z,53.12
2023-03-28T10:03:14.419Z,57.69
2023-03-28T10:05:48.797Z,53.16
2023-03-28T10:08:29.949Z,55.25
2023-03-28T10:11:02.645Z,54.47
2023-03-28T10:13:40.291Z,54.65
2023-03-28T10:16:11.953Z,56.25
2023-03-28T10:18:43.284Z,55.17
2023-03-28T10:21:18.226Z,54.49
2023-03-28T10:23:56.268Z,53.56
2023-03-28T10:26:27.786Z,50.85
2023-03-28T10:29:04.342Z,49.10
2023-03-28T10:31:35.697Z,50.02
2023-03-28T10:34:05.409Z,47.91
2023-03-28T10:36:37.837Z,50.44
2023-03-28T10:39:24.018Z,47.97
2023-03-28T10:41:57.301Z,46.81
2023-03-28T10:44:32.323Z,51.14
2023-03-28T10:47:04.803Z,50.42
2023-03-28T10:49:45.167Z,50.11
2023-03-28T10:52:25.440Z,52.15
2023-03-28T10:55:07.887Z,50.21
2023-03-28T10:57:42.841Z,52.56
2023-03-28T11:00:19.948Z,50.20
2023-03-28T11:03:08.471Z,48.93
2023-03-28T11:05:55.066Z,49.12
2023-03-28T11:08:46.377Z,44.01
2023-03-28T11:11:37.334Z,43.56
2023-03-28T11:14:21.367Z,46.34
2023-03-28T11:17:00.627Z,47.13
2023-03-28T11:19:56.596Z,44.92
2023-03-28T11:22:38.018Z,45.45
2023-03-28T11:25:21.063Z,47.86
2023-03-28T11:28:01.004Z,45.51
2023-03-28T11:30:33.861Z,42.45
2023-03-28T11:33:11.941Z,46.28
2023-03-28T11:35:46.038Z,41.64
2023-03-28T11:38:22.808Z,40.86
2023-03-28T11:40:55.901Z,42.02
2023-03-28T11:43:34.544Z,41.73
2023-03-28T11:46:10.339Z,43.59
2023-03-28T11:48:48.920Z,43.09
2023-03-28T11:51:21.322Z,43.42
2023-03-28T11:53:55.701Z,43.18
2023-03-28T11:56:31.896Z,39.74
2023-03-28T11:59:06.919Z,39.13
2023-03-28T12:01:41.104Z,39.21
2023-03-28T12:04:16.651Z,40.24
2023-03-28T12:07:02.190Z,41.47
2023-03-28T12:09:38.636Z,41.38
2023-03-28T12:12:14.291Z,42.53
2023-03-28T12:14:55.379Z,41.83
2023-03-28T12:17:28.673Z,42.42
2023-03-28T12:19:57.981Z,40.47
2023-03-28T12:22:34.751Z,38.08
2023-03-28T12:25:09.758Z,39.89
2023-03-28T12:27:57.260Z,38.19
